createdAt,value
2018-10-09T00:02:18.858Z,16.49
2018-10-09T00:04:48.106Z,16.42
2018-10-09T00:07:17.008Z,16.44
2018-10-09T00:09:45.890Z,16.39
2018-10-09T00:12:15.085Z,16.41
2018-10-09T00:14:43.928Z,16.44
2018-10-09T00:17:12.783Z,16.42
2018-10-09T00:19:41.998Z,16.39
2018-10-09T00:22:10.873Z,16.36
2018-10-09T00:24:39.714Z,16.37
2018-10-09T00:27:09.024Z,16.34
2018-10-09T00:29:37.881Z,16.31
2018-10-09T00:32:06.946Z,16.28
2018-10-09T00:34:36.322Z,16.27
2018-10-09T00:37:05.290Z,16.26
2018-10-09T00:39:34.218Z,16.24
2018-10-09T00:42:04.082Z,16.21
2018-10-09T00:44:32.968Z,16.22
2018-10-09T00:47:01.878Z,16.19
2018-10-09T00:49:31.174Z,16.18
2018-10-09T00:52:00.075Z,16.15
2018-10-09T00:54:28.999Z,16.15
2018-10-09T00:56:58.293Z,16.14
2018-10-09T00:59:27.285Z,16.15
2018-10-09T01:01:56.137Z,16.07
2018-10-09T01:04:25.357Z,16.03
2018-10-09T01:06:54.253Z,16.01
2018-10-09T01:09:23.299Z,16.00
2018-10-09T01:11:52.152Z,15.92
2018-10-09T01:14:21.016Z,15.87
2018-10-09T01:16:50.143Z,15.83
2018-10-09T01:19:18.965Z,15.89
2018-10-09T01:21:47.885Z,15.90
2018-10-09T01:24:16.826Z,15.91
2018-10-09T01:26:45.720Z,15.90
2018-10-09T01:29:15.517Z,15.82
2018-10-09T01:31:44.417Z,15.84
2018-10-09T01:34:13.453Z,15.83
2018-10-09T01:36:42.672Z,15.76
2018-10-09T01:39:11.588Z,15.69
2018-10-09T01:41:40.444Z,15.73
2018-10-09T01:44:09.752Z,15.71
2018-10-09T01:46:38.679Z,15.69
2018-10-09T01:49:07.561Z,15.69
2018-10-09T01:51:36.914Z,15.65
2018-10-09T01:54:06.409Z,15.58
2018-10-09T01:56:35.652Z,15.56
2018-10-09T01:59:05.036Z,15.49
2018-10-09T02:01:34.027Z,15.49
2018-10-09T02:04:03.568Z,15.46
2018-10-09T02:06:32.784Z,15.48
2018-10-09T02:09:02.092Z,15.45
2018-10-09T02:11:31.636Z,15.39
2018-10-09T02:14:00.764Z,15.37
2018-10-09T02:16:29.654Z,15.38
2018-10-09T02:18:58.529Z,15.36
2018-10-09T02:21:27.700Z,15.35
2018-10-09T02:23:56.869Z,15.30
2018-10-09T02:26:25.735Z,15.32
2018-10-09T02:28:55.010Z,15.28
2018-10-09T02:31:23.865Z,15.27
2018-10-09T02:33:52.713Z,15.28
2018-10-09T02:36:23.054Z,15.26
2018-10-09T02:38:52.001Z,15.20
2018-10-09T02:41:20.859Z,15.16
2018-10-09T02:43:50.000Z,15.13
2018-10-09T02:46:18.909Z,15.14
2018-10-09T02:48:47.805Z,15.14
2018-10-09T02:51:17.046Z,15.09
2018-10-09T02:53:45.946Z,15.06
2018-10-09T02:56:14.808Z,15.01
2018-10-09T02:58:43.985Z,15.00
2018-10-09T03:01:12.820Z,14.95
2018-10-09T03:03:41.701Z,14.96
2018-10-09T03:06:10.836Z,14.94
2018-10-09T03:08:39.779Z,14.95
2018-10-09T03:11:08.585Z,14.91
2018-10-09T03:13:37.945Z,14.89
2018-10-09T03:16:06.789Z,14.90
2018-10-09T03:18:35.647Z,14.84
2018-10-09T03:21:05.019Z,14.76
2018-10-09T03:23:34.150Z,14.71
2018-10-09T03:26:04.938Z,14.65
2018-10-09T03:28:34.229Z,14.69
2018-10-09T03:31:03.165Z,14.69
2018-10-09T03:33:32.036Z,14.68
2018-10-09T03:36:01.280Z,14.66
2018-10-09T03:38:30.713Z,14.61
2018-10-09T03:40:59.654Z,14.61
2018-10-09T03:43:28.864Z,14.61
2018-10-09T03:45:57.694Z,14.59
2018-10-09T03:48:26.555Z,14.58
2018-10-09T03:50:55.896Z,14.56
2018-10-09T03:53:24.852Z,14.52
2018-10-09T03:55:53.717Z,14.48
2018-10-09T03:58:22.939Z,14.43
2018-10-09T04:00:51.854Z,14.47
2018-10-09T04:03:20.765Z,14.47
2018-10-09T04:05:50.032Z,14.45
2018-10-09T04:08:18.878Z,14.45
2018-10-09T04:10:47.728Z,14.46
2018-10-09T04:15:47.103Z,14.48
2018-10-09T04:18:16.021Z,14.48
2018-10-09T04:20:45.242Z,14.51
2018-10-09T04:23:14.145Z,14.48
2018-10-09T04:25:43.022Z,14.46
2018-10-09T04:28:12.326Z,14.45
2018-10-09T04:30:41.162Z,14.48
2018-10-09T04:33:10.041Z,14.47
2018-10-09T04:35:39.312Z,14.46
2018-10-09T04:38:08.125Z,14.43
2018-10-09T04:40:36.977Z,14.43
2018-10-09T04:43:06.255Z,14.41
2018-10-09T04:45:35.238Z,14.37
2018-10-09T04:48:04.953Z,14.36
2018-10-09T04:50:34.213Z,14.34
2018-10-09T04:53:03.176Z,14.29
2018-10-09T04:55:32.020Z,14.25
2018-10-09T04:58:03.749Z,14.22
2018-10-09T05:00:32.676Z,14.25
2018-10-09T05:03:01.547Z,14.24
2018-10-09T05:05:30.443Z,14.21
2018-10-09T05:07:59.332Z,14.21
2018-10-09T05:10:28.221Z,14.20
2018-10-09T05:12:57.541Z,14.17
2018-10-09T05:15:27.437Z,14.13
2018-10-09T05:17:56.311Z,14.10
2018-10-09T05:20:25.273Z,14.08
2018-10-09T05:22:54.402Z,14.06
2018-10-09T05:25:23.643Z,14.04
2018-10-09T05:27:52.583Z,14.04
2018-10-09T05:30:21.449Z,14.06
2018-10-09T05:32:50.421Z,14.07
2018-10-09T05:35:20.038Z,14.04
2018-10-09T05:37:49.525Z,14.01
2018-10-09T05:40:18.236Z,14.02
2018-10-09T05:42:47.161Z,13.98
2018-10-09T05:47:39.759Z,13.97
2018-10-09T05:50:10.963Z,13.99
2018-10-09T05:52:39.986Z,13.96
2018-10-09T05:55:09.366Z,13.93
2018-10-09T05:57:38.564Z,13.91
2018-10-09T06:00:08.705Z,13.92
2018-10-09T06:02:37.589Z,14.00
2018-10-09T06:05:07.025Z,14.02
2018-10-09T06:07:36.649Z,14.05
2018-10-09T06:10:07.730Z,14.07
2018-10-09T06:12:36.905Z,14.09
2018-10-09T06:15:06.603Z,14.17
2018-10-09T06:17:35.472Z,14.18
2018-10-09T06:20:06.025Z,14.16
2018-10-09T06:22:34.908Z,14.20
2018-10-09T06:25:03.978Z,14.26
2018-10-09T06:27:33.204Z,14.34
2018-10-09T06:30:04.322Z,14.40
2018-10-09T06:32:33.403Z,14.42
2018-10-09T06:35:04.190Z,14.40
2018-10-09T06:37:33.372Z,14.45
2018-10-09T06:40:03.782Z,14.48
2018-10-09T06:42:33.010Z,14.56
2018-10-09T06:45:02.086Z,14.59
2018-10-09T06:47:30.998Z,14.59
2018-10-09T06:50:00.399Z,14.65
2018-10-09T06:52:29.306Z,14.67
2018-10-09T06:54:58.245Z,14.72
2018-10-09T06:57:27.601Z,14.78
2018-10-09T06:59:57.351Z,14.93
2018-10-09T07:02:26.815Z,14.93
2018-10-09T07:04:57.173Z,14.86
2018-10-09T07:07:26.107Z,14.93
2018-10-09T07:09:55.058Z,14.94
2018-10-09T07:12:24.433Z,14.93
2018-10-09T07:14:53.508Z,14.99
2018-10-09T07:17:22.590Z,14.93
2018-10-09T07:19:51.873Z,15.01
2018-10-09T07:22:20.848Z,15.12
2018-10-09T07:24:49.724Z,15.22
2018-10-09T07:27:18.904Z,15.28
2018-10-09T07:29:47.795Z,15.29
2018-10-09T07:32:16.706Z,15.39
2018-10-09T07:34:45.885Z,15.53
2018-10-09T07:37:14.818Z,15.63
2018-10-09T07:39:43.716Z,15.75
2018-10-09T07:42:12.971Z,15.81
2018-10-09T07:44:41.944Z,15.98
2018-10-09T07:47:10.817Z,16.20
2018-10-09T07:49:41.161Z,16.31
2018-10-09T07:52:10.085Z,16.46
2018-10-09T07:54:38.980Z,16.60
2018-10-09T07:57:08.377Z,16.78
2018-10-09T07:59:37.709Z,17.04
2018-10-09T08:02:06.707Z,17.26
2018-10-09T08:04:35.893Z,17.41
2018-10-09T08:07:04.992Z,17.68
2018-10-09T08:11:56.958Z,18.16
2018-10-09T08:14:25.969Z,18.29
2018-10-09T08:16:54.869Z,18.31
2018-10-09T08:19:24.377Z,18.31
2018-10-09T08:21:53.361Z,18.32
2018-10-09T08:24:22.295Z,18.49
2018-10-09T08:26:51.708Z,18.67
2018-10-09T08:29:20.647Z,18.84
2018-10-09T08:31:49.511Z,19.03
2018-10-09T08:37:21.502Z,19.32
2018-10-09T08:39:50.487Z,19.42
2018-10-09T08:44:59.201Z,19.74
2018-10-09T08:47:28.140Z,20.06
2018-10-09T08:49:56.975Z,20.29
2018-10-09T08:52:25.820Z,20.55
2018-10-09T08:54:57.749Z,20.48
2018-10-09T08:57:26.989Z,20.59
2018-10-09T08:59:56.059Z,20.70
2018-10-09T09:02:25.014Z,20.90
2018-10-09T09:04:53.868Z,21.19
2018-10-09T09:07:27.361Z,21.37
2018-10-09T09:09:56.649Z,21.41
2018-10-09T09:12:25.512Z,21.67
2018-10-09T09:14:55.456Z,21.91
2018-10-09T09:17:25.290Z,22.19
2018-10-09T09:19:54.178Z,22.32
2018-10-09T09:22:27.907Z,22.22
2018-10-09T09:24:57.028Z,22.38
2018-10-09T09:27:25.969Z,22.41
2018-10-09T09:29:54.796Z,22.78
2018-10-09T09:32:24.055Z,22.78
2018-10-09T09:34:52.964Z,22.77
2018-10-09T09:37:21.797Z,22.73
2018-10-09T09:39:57.930Z,22.80
2018-10-09T09:42:26.745Z,23.11
2018-10-09T09:44:55.775Z,23.37
2018-10-09T09:47:24.626Z,23.55
2018-10-09T09:49:53.456Z,23.52
2018-10-09T09:52:22.671Z,23.56
2018-10-09T09:54:51.463Z,23.45
2018-10-09T09:57:20.307Z,23.11
2018-10-09T09:59:49.383Z,23.20
2018-10-09T10:02:18.204Z,22.91
2018-10-09T10:04:47.069Z,23.04
2018-10-09T10:07:16.198Z,23.09
2018-10-09T10:09:46.596Z,23.30
2018-10-09T10:13:17.645Z,23.53
2018-10-09T10:15:46.562Z,23.54
2018-10-09T10:18:15.616Z,23.53
2018-10-09T10:20:44.584Z,23.70
2018-10-09T10:23:13.448Z,23.82
2018-10-09T10:25:42.735Z,23.97
2018-10-09T10:28:14.945Z,24.04
2018-10-09T10:30:43.796Z,24.34
2018-10-09T10:33:14.115Z,24.40
2018-10-09T10:35:48.380Z,24.49
2018-10-09T10:38:17.132Z,24.60
2018-10-09T10:40:45.903Z,24.80
2018-10-09T10:43:14.744Z,24.83
2018-10-09T10:45:43.861Z,24.93
2018-10-09T10:48:13.592Z,25.10
2018-10-09T10:50:42.425Z,25.11
2018-10-09T10:53:11.305Z,24.99
2018-10-09T10:55:40.169Z,24.97
2018-10-09T10:58:09.506Z,25.30
2018-10-09T11:00:38.332Z,25.49
2018-10-09T11:03:07.462Z,25.75
2018-10-09T11:05:36.513Z,25.93
2018-10-09T11:08:06.247Z,26.00
2018-10-09T11:10:36.647Z,25.91
2018-10-09T11:13:05.685Z,25.64
2018-10-09T11:15:34.536Z,25.28
2018-10-09T11:18:04.347Z,24.81
2018-10-09T11:20:38.633Z,24.83
2018-10-09T11:23:07.598Z,24.67
2018-10-09T11:25:36.816Z,24.65
2018-10-09T11:28:07.167Z,24.87
2018-10-09T11:30:35.987Z,25.34
2018-10-09T11:33:05.180Z,25.57
2018-10-09T11:35:34.008Z,25.63
2018-10-09T11:38:03.489Z,26.13
2018-10-09T11:40:35.933Z,26.68
2018-10-09T11:45:44.798Z,27.85
2018-10-09T11:48:13.849Z,28.30
2018-10-09T11:50:44.503Z,28.90
2018-10-09T11:53:13.670Z,29.41
2018-10-09T11:55:53.684Z,29.30
2018-10-09T11:58:22.768Z,29.19
2018-10-09T12:01:00.960Z,29.22
2018-10-09T12:03:29.928Z,29.66
2018-10-09T12:06:05.600Z,29.36
2018-10-09T12:08:34.723Z,29.13
2018-10-09T12:11:03.674Z,29.54
2018-10-09T12:13:32.508Z,29.80
2018-10-09T12:16:02.532Z,29.91
2018-10-09T12:18:32.062Z,29.96
2018-10-09T12:21:05.727Z,30.00
2018-10-09T12:23:34.835Z,30.49
2018-10-09T12:26:04.400Z,30.49
2018-10-09T12:28:33.312Z,30.48
2018-10-09T12:31:02.589Z,30.75
2018-10-09T12:33:31.436Z,30.97
2018-10-09T12:36:00.271Z,30.97
2018-10-09T12:38:29.479Z,31.09
2018-10-09T12:40:58.297Z,31.39
2018-10-09T12:43:27.174Z,31.30
2018-10-09T12:45:56.315Z,31.27
2018-10-09T12:48:26.212Z,31.04
2018-10-09T12:50:55.077Z,31.34
2018-10-09T12:53:24.668Z,31.81
2018-10-09T12:58:33.173Z,31.65
2018-10-09T13:01:02.330Z,31.25
2018-10-09T13:03:31.173Z,30.76
2018-10-09T13:06:00.022Z,31.24
2018-10-09T13:08:30.621Z,31.10
2018-10-09T13:10:59.476Z,31.05
2018-10-09T13:16:08.099Z,30.23
2018-10-09T13:18:43.772Z,30.06
2018-10-09T13:21:12.769Z,29.57
2018-10-09T13:23:41.827Z,29.41
2018-10-09T13:26:10.680Z,29.31
2018-10-09T13:28:39.576Z,28.73
2018-10-09T13:31:08.704Z,28.68
2018-10-09T13:33:38.382Z,28.53
2018-10-09T13:36:07.354Z,28.01
2018-10-09T13:38:38.820Z,27.90
2018-10-09T13:41:08.004Z,27.76
2018-10-09T13:43:36.902Z,27.73
2018-10-09T13:46:07.248Z,27.58
2018-10-09T13:48:36.210Z,27.40
2018-10-09T13:51:05.137Z,27.45
2018-10-09T13:53:43.582Z,27.47
2018-10-09T13:56:12.644Z,27.49
2018-10-09T13:58:47.833Z,27.40
2018-10-09T14:01:17.158Z,27.20
2018-10-09T14:03:46.024Z,27.00
2018-10-09T14:06:25.567Z,26.71
2018-10-09T14:08:54.701Z,26.52
2018-10-09T14:11:27.139Z,26.56
2018-10-09T14:13:55.960Z,26.69
2018-10-09T14:16:25.363Z,26.80
2018-10-09T14:18:54.174Z,26.53
2018-10-09T14:21:27.490Z,26.46
2018-10-09T14:24:02.492Z,26.66
2018-10-09T14:26:31.425Z,27.01
2018-10-09T14:29:00.356Z,27.06
2018-10-09T14:31:29.522Z,27.19
2018-10-09T14:33:58.335Z,27.30
2018-10-09T14:36:27.164Z,27.43
2018-10-09T14:38:59.525Z,27.60
2018-10-09T14:44:08.240Z,27.19
2018-10-09T14:46:40.416Z,26.65
2018-10-09T14:49:09.271Z,26.66
2018-10-09T14:51:38.020Z,26.38
2018-10-09T14:54:06.858Z,26.08
2018-10-09T14:56:36.016Z,25.90
2018-10-09T14:59:04.874Z,25.63
2018-10-09T15:01:33.726Z,25.62
2018-10-09T15:04:04.905Z,25.65
2018-10-09T15:06:33.804Z,25.73
2018-10-09T15:09:02.773Z,25.95
2018-10-09T15:11:36.017Z,26.00
2018-10-09T15:14:05.977Z,25.79
2018-10-09T15:16:34.899Z,26.05
2018-10-09T15:19:04.279Z,26.26
2018-10-09T15:21:33.115Z,26.24
2018-10-09T15:24:03.175Z,26.18
2018-10-09T15:26:32.317Z,26.50
2018-10-09T15:29:04.870Z,26.60
2018-10-09T15:31:33.661Z,26.44
2018-10-09T15:34:03.588Z,26.30
2018-10-09T15:36:38.206Z,26.12
2018-10-09T15:39:09.330Z,26.42
2018-10-09T15:41:38.628Z,26.48
2018-10-09T15:44:07.465Z,26.50
2018-10-09T15:46:36.327Z,26.40
2018-10-09T15:49:09.267Z,26.07
2018-10-09T15:51:38.271Z,25.95
2018-10-09T15:54:12.950Z,26.07
2018-10-09T15:56:41.863Z,26.02
2018-10-09T15:59:10.753Z,25.81
2018-10-09T16:01:39.856Z,25.50
2018-10-09T16:04:08.787Z,25.25
2018-10-09T16:06:37.620Z,24.96
2018-10-09T16:09:08.860Z,24.77
2018-10-09T16:11:37.733Z,24.49
2018-10-09T16:14:06.580Z,24.24
2018-10-09T16:16:37.418Z,24.14
2018-10-09T16:19:06.388Z,23.85
2018-10-09T16:21:35.456Z,23.77
2018-10-09T16:24:05.479Z,23.66
2018-10-09T16:26:34.412Z,23.52
2018-10-09T16:29:03.271Z,23.36
2018-10-09T16:31:34.143Z,23.28
2018-10-09T16:34:04.356Z,23.14
2018-10-09T16:36:33.240Z,23.02
2018-10-09T16:39:04.290Z,22.90
2018-10-09T16:41:33.154Z,22.77
2018-10-09T16:44:02.730Z,22.65
2018-10-09T16:46:31.897Z,22.60
2018-10-09T16:49:00.781Z,22.48
2018-10-09T16:51:33.376Z,22.38
2018-10-09T16:54:03.233Z,22.36
2018-10-09T16:56:32.318Z,22.28
2018-10-09T16:59:01.176Z,22.22
2018-10-09T17:01:30.361Z,22.11
2018-10-09T17:03:59.186Z,22.01
2018-10-09T17:06:28.028Z,21.89
2018-10-09T17:09:03.206Z,21.83
2018-10-09T17:11:32.082Z,21.80
2018-10-09T17:14:00.906Z,21.80
2018-10-09T17:16:30.080Z,21.70
2018-10-09T17:18:58.928Z,21.57
2018-10-09T17:21:28.114Z,21.46
2018-10-09T17:23:57.217Z,21.52
2018-10-09T17:26:26.128Z,21.51
2018-10-09T17:28:57.876Z,21.52
2018-10-09T17:31:27.132Z,21.56
2018-10-09T17:33:59.858Z,21.51
2018-10-09T17:36:28.691Z,21.49
2018-10-09T17:38:57.844Z,21.46
2018-10-09T17:41:26.688Z,21.43
2018-10-09T17:43:55.506Z,21.39
2018-10-09T17:46:24.752Z,21.39
2018-10-09T17:48:53.526Z,21.37
2018-10-09T17:51:22.373Z,21.36
2018-10-09T17:53:51.589Z,21.38
2018-10-09T17:56:20.824Z,21.37
2018-10-09T17:58:49.676Z,21.34
2018-10-09T18:01:18.805Z,21.34
2018-10-09T18:03:47.680Z,21.29
2018-10-09T18:06:27.790Z,21.26
2018-10-09T18:08:56.765Z,21.20
2018-10-09T18:11:25.660Z,21.19
2018-10-09T18:13:54.873Z,21.19
2018-10-09T18:16:23.768Z,21.17
2018-10-09T18:18:52.817Z,21.15
2018-10-09T18:21:22.876Z,21.10
2018-10-09T18:23:52.189Z,21.06
2018-10-09T18:26:21.603Z,21.05
2018-10-09T18:31:48.165Z,21.02
2018-10-09T18:34:17.245Z,20.96
2018-10-09T18:36:46.193Z,20.96
2018-10-09T18:39:20.884Z,20.90
2018-10-09T18:41:50.135Z,20.89
2018-10-09T18:44:19.478Z,20.86
2018-10-09T18:46:48.698Z,20.83
2018-10-09T18:49:17.590Z,20.79
2018-10-09T18:51:46.426Z,20.69
2018-10-09T18:54:15.607Z,20.71
2018-10-09T18:56:47.981Z,20.63
2018-10-09T18:59:16.969Z,20.54
2018-10-09T19:01:46.159Z,20.51
2018-10-09T19:04:15.190Z,20.42
2018-10-09T19:06:44.717Z,20.27
2018-10-09T19:09:14.087Z,20.24
2018-10-09T19:11:43.214Z,20.20
2018-10-09T19:14:12.105Z,20.14
2018-10-09T19:16:41.389Z,20.10
2018-10-09T19:19:10.179Z,20.08
2018-10-09T19:21:38.996Z,20.02
2018-10-09T19:24:08.169Z,19.94
2018-10-09T19:26:37.451Z,19.97
2018-10-09T19:29:07.101Z,19.93
2018-10-09T19:31:36.546Z,19.92
2018-10-09T19:34:07.283Z,19.83
2018-10-09T19:36:37.549Z,19.80
2018-10-09T19:39:09.568Z,19.78
2018-10-09T19:41:38.984Z,19.74
2018-10-09T19:44:08.136Z,19.70
2018-10-09T19:46:37.302Z,19.68
2018-10-09T19:49:06.165Z,19.63
2018-10-09T19:51:40.247Z,19.58
2018-10-09T19:54:09.420Z,19.45
2018-10-09T19:56:40.036Z,19.42
2018-10-09T19:59:09.594Z,19.40
2018-10-09T20:01:38.901Z,19.36
2018-10-09T20:04:07.802Z,19.35
2018-10-09T20:06:38.305Z,19.29
2018-10-09T20:09:12.702Z,19.28
2018-10-09T20:11:44.917Z,19.25
2018-10-09T20:14:14.579Z,19.21
2018-10-09T20:16:43.699Z,19.20
2018-10-09T20:19:12.956Z,19.14
2018-10-09T20:21:41.787Z,19.14
2018-10-09T20:24:12.355Z,19.09
2018-10-09T20:26:41.556Z,19.08
2018-10-09T20:29:12.646Z,19.03
2018-10-09T20:31:41.481Z,19.01
2018-10-09T20:34:10.604Z,18.98
2018-10-09T20:36:41.311Z,18.94
2018-10-09T20:39:10.156Z,18.93
2018-10-09T20:41:42.941Z,18.89
2018-10-09T20:44:11.817Z,18.82
2018-10-09T20:46:40.669Z,18.79
2018-10-09T20:49:09.795Z,18.78
2018-10-09T20:51:38.624Z,18.74
2018-10-09T20:54:09.174Z,18.71
2018-10-09T20:56:37.984Z,18.66
2018-10-09T20:59:11.939Z,18.58
2018-10-09T21:01:41.088Z,18.58
2018-10-09T21:04:24.021Z,18.50
2018-10-09T21:06:53.165Z,18.46
2018-10-09T21:11:55.287Z,18.44
2018-10-09T21:14:24.402Z,18.40
2018-10-09T21:16:53.212Z,18.37
2018-10-09T21:19:28.194Z,18.33
2018-10-09T21:21:57.065Z,18.34
2018-10-09T21:24:29.608Z,18.34
2018-10-09T21:26:58.733Z,18.29
2018-10-09T21:29:27.569Z,18.26
2018-10-09T21:31:59.059Z,18.25
2018-10-09T21:34:28.229Z,18.20
2018-10-09T21:37:02.472Z,18.21
2018-10-09T21:39:31.301Z,18.20
2018-10-09T21:42:00.444Z,18.18
2018-10-09T21:44:31.971Z,18.16
2018-10-09T21:47:02.608Z,18.11
2018-10-09T21:49:31.707Z,18.03
2018-10-09T21:52:00.949Z,17.96
2018-10-09T21:54:29.859Z,17.92
2018-10-09T21:57:04.128Z,17.87
2018-10-09T21:59:32.938Z,17.89
2018-10-09T22:02:04.061Z,17.84
2018-10-09T22:04:33.182Z,17.86
2018-10-09T22:07:06.604Z,17.85
2018-10-09T22:09:35.451Z,17.84
2018-10-09T22:12:07.699Z,17.82
2018-10-09T22:14:36.596Z,17.73
2018-10-09T22:17:05.834Z,17.65
2018-10-09T22:19:34.797Z,17.63
2018-10-09T22:24:44.693Z,17.54
2018-10-09T22:27:13.734Z,17.53
2018-10-09T22:29:45.556Z,17.58
2018-10-09T22:32:14.816Z,17.56
2018-10-09T22:34:43.600Z,17.54
2018-10-09T22:37:12.590Z,17.49
2018-10-09T22:39:41.941Z,17.49
2018-10-09T22:42:16.841Z,17.38
2018-10-09T22:44:45.696Z,17.34
2018-10-09T22:47:14.999Z,17.28
2018-10-09T22:49:43.804Z,17.30
2018-10-09T22:52:17.944Z,17.28
2018-10-09T22:54:46.775Z,17.21
2018-10-09T22:57:18.796Z,17.24
2018-10-09T22:59:48.269Z,17.20
2018-10-09T23:02:18.762Z,17.21
2018-10-09T23:04:47.660Z,17.15
2018-10-09T23:07:16.896Z,17.10
2018-10-09T23:09:45.724Z,17.06
2018-10-09T23:12:16.104Z,17.08
2018-10-09T23:14:45.326Z,17.08
2018-10-09T23:17:14.153Z,17.05
2018-10-09T23:19:42.986Z,16.99
2018-10-09T23:22:13.078Z,16.98
2018-10-09T23:24:41.874Z,16.91
2018-10-09T23:27:10.670Z,16.91
2018-10-09T23:29:54.206Z,16.92
2018-10-09T23:32:28.970Z,16.95
2018-10-09T23:34:58.075Z,16.84
2018-10-09T23:37:26.900Z,16.71
2018-10-09T23:39:55.723Z,16.73
2018-10-09T23:42:24.900Z,16.74
2018-10-09T23:44:53.695Z,16.71
2018-10-09T23:47:22.491Z,16.66
2018-10-09T23:49:51.617Z,16.63
2018-10-09T23:52:20.541Z,16.60
2018-10-09T23:54:49.396Z,16.59
2018-10-09T23:57:18.555Z,16.59
2018-10-09T23:59:48.943Z,16.52
